createdAt,value
2019-03-13T00:06:10.591Z,11.10
2019-03-13T00:12:55.911Z,11.10
2019-03-13T00:19:40.834Z,10.90
2019-03-13T00:26:25.842Z,10.40
2019-03-13T00:33:10.846Z,9.70
2019-03-13T00:39:56.500Z,9.40
2019-03-13T00:46:41.701Z,9.10
2019-03-13T00:53:27.150Z,8.80
2019-03-13T01:00:14.201Z,8.50
2019-03-13T01:07:00.110Z,8.30
2019-03-13T01:13:46.298Z,8.20
2019-03-13T01:20:31.968Z,8.00
2019-03-13T01:27:17.153Z,7.90
2019-03-13T01:34:10.000Z,7.90
2019-03-13T01:40:55.960Z,7.80
2019-03-13T01:47:41.046Z,7.70
2019-03-13T01:54:25.898Z,7.60
2019-03-13T02:01:10.813Z,7.50
2019-03-13T02:07:55.663Z,7.50
2019-03-13T02:14:40.672Z,7.40
2019-03-13T02:21:25.595Z,7.20
2019-03-13T02:28:10.441Z,7.10
2019-03-13T02:34:55.477Z,6.80
2019-03-13T02:41:40.396Z,6.40
2019-03-13T02:48:25.329Z,6.20
2019-03-13T02:55:11.115Z,6.00
2019-03-13T03:01:59.515Z,6.00
2019-03-13T03:08:44.438Z,5.90
2019-03-13T03:15:29.538Z,5.80
2019-03-13T03:22:14.383Z,5.70
2019-03-13T03:28:59.291Z,5.60
2019-03-13T03:35:44.135Z,5.70
2019-03-13T03:42:28.980Z,5.60
2019-03-13T03:49:13.900Z,5.60
2019-03-13T03:55:58.753Z,5.40
2019-03-13T04:02:44.000Z,5.60
2019-03-13T04:09:29.220Z,5.80
2019-03-13T04:16:14.188Z,5.80
2019-03-13T04:22:59.053Z,5.80
2019-03-13T04:29:43.965Z,5.90
2019-03-13T04:36:28.820Z,6.20
2019-03-13T04:43:13.664Z,6.50
2019-03-13T04:49:58.615Z,6.40
2019-03-13T04:56:43.471Z,6.30
2019-03-13T05:03:28.395Z,6.40
2019-03-13T05:10:13.247Z,6.30
2019-03-13T05:16:58.098Z,6.30
2019-03-13T05:23:43.019Z,6.30
2019-03-13T05:30:27.885Z,6.20
2019-03-13T05:37:12.798Z,6.10
2019-03-13T05:43:58.755Z,6.00
2019-03-13T05:50:43.986Z,5.90
2019-03-13T05:57:28.963Z,5.60
2019-03-13T06:04:13.890Z,5.50
2019-03-13T06:10:58.739Z,5.50
2019-03-13T06:17:43.650Z,5.80
2019-03-13T06:24:28.511Z,5.90
2019-03-13T06:31:13.358Z,6.00
2019-03-13T06:37:58.203Z,6.40
2019-03-13T06:44:43.219Z,6.60
2019-03-13T06:51:28.072Z,6.60
2019-03-13T06:58:13.083Z,6.60
2019-03-13T07:04:59.687Z,8.90
2019-03-13T07:11:50.700Z,9.40
2019-03-13T07:18:37.519Z,18.30
2019-03-13T07:25:33.810Z,21.60
2019-03-13T07:32:26.496Z,18.20
2019-03-13T07:39:22.115Z,18.80
2019-03-13T07:46:17.761Z,20.00
2019-03-13T07:53:04.327Z,12.90
2019-03-13T07:59:56.966Z,21.50
2019-03-13T08:06:52.607Z,22.60
2019-03-13T08:13:45.143Z,22.40
2019-03-13T08:20:34.263Z,26.30
2019-03-13T08:27:20.957Z,24.20
2019-03-13T08:34:22.539Z,26.00
2019-03-13T08:41:11.831Z,21.70
2019-03-13T08:48:03.826Z,18.60
2019-03-13T08:54:50.324Z,19.00
2019-03-13T09:01:37.898Z,21.10
2019-03-13T09:08:33.499Z,20.70
2019-03-13T09:15:28.910Z,17.10
2019-03-13T09:22:15.478Z,21.90
2019-03-13T09:29:19.392Z,24.60
2019-03-13T09:36:18.168Z,24.60
2019-03-13T09:43:13.671Z,23.40
2019-03-13T09:50:16.653Z,22.60
2019-03-13T09:57:12.439Z,22.50
2019-03-13T10:03:58.936Z,21.90
2019-03-13T10:11:01.719Z,20.80
2019-03-13T10:17:48.291Z,20.70
2019-03-13T10:24:43.267Z,22.40
2019-03-13T10:31:48.236Z,20.20
2019-03-13T10:38:34.907Z,19.90
2019-03-13T10:45:21.478Z,17.70
2019-03-13T10:52:08.211Z,17.80
2019-03-13T10:59:12.483Z,19.20
2019-03-13T11:05:59.344Z,17.90
2019-03-13T11:12:48.414Z,16.00
2019-03-13T11:19:34.119Z,15.10
2019-03-13T11:26:20.707Z,13.90
2019-03-13T11:33:38.689Z,12.90
2019-03-13T11:40:28.399Z,11.90
2019-03-13T11:47:41.961Z,11.20
2019-03-13T11:54:21.455Z,10.90
2019-03-13T12:01:08.355Z,10.70
2019-03-13T12:08:00.711Z,10.50
2019-03-13T12:15:02.477Z,11.10
2019-03-13T12:21:52.387Z,11.30
2019-03-13T12:28:42.069Z,11.80
2019-03-13T12:35:34.452Z,12.40
2019-03-13T12:42:39.332Z,13.60
2019-03-13T12:49:28.597Z,12.90
2019-03-13T12:56:18.175Z,12.40
2019-03-13T13:03:21.142Z,12.90
2019-03-13T13:10:17.262Z,12.40
2019-03-13T13:17:12.802Z,12.40
2019-03-13T13:23:59.199Z,12.00
2019-03-13T13:30:44.271Z,11.80
2019-03-13T13:37:29.803Z,10.50
2019-03-13T13:44:15.011Z,9.20
2019-03-13T13:51:01.238Z,8.80
2019-03-13T13:57:46.092Z,9.60
2019-03-13T14:04:30.948Z,10.70
2019-03-13T14:11:15.976Z,10.80
2019-03-13T14:18:00.902Z,11.00
2019-03-13T14:24:45.834Z,11.40
2019-03-13T14:31:30.820Z,11.00
2019-03-13T14:38:15.677Z,10.80
2019-03-13T14:45:00.606Z,11.30
2019-03-13T14:51:45.825Z,11.50
2019-03-13T14:58:30.687Z,11.40
2019-03-13T15:05:15.761Z,11.40
2019-03-13T15:12:00.662Z,11.10
2019-03-13T15:18:45.519Z,11.00
2019-03-13T15:25:30.367Z,11.00
2019-03-13T15:32:15.363Z,10.80
2019-03-13T15:39:00.215Z,11.10
2019-03-13T15:45:45.466Z,11.00
2019-03-13T15:52:30.469Z,10.60
2019-03-13T15:59:15.386Z,10.40
2019-03-13T16:06:00.250Z,10.60
2019-03-13T16:12:45.318Z,10.80
2019-03-13T16:19:30.568Z,10.70
2019-03-13T16:26:15.523Z,10.30
2019-03-13T16:33:00.474Z,9.80
2019-03-13T16:39:45.367Z,9.70
2019-03-13T16:46:30.287Z,9.60
2019-03-13T16:53:15.470Z,9.60
2019-03-13T17:00:01.492Z,9.30
2019-03-13T17:06:48.643Z,9.10
2019-03-13T17:13:34.152Z,9.00
2019-03-13T17:20:26.197Z,9.00
2019-03-13T17:27:10.724Z,8.90
2019-03-13T17:33:57.516Z,8.80
2019-03-13T17:40:43.974Z,8.60
2019-03-13T17:47:28.823Z,8.40
2019-03-13T17:54:13.754Z,8.40
2019-03-13T18:00:58.984Z,8.40
2019-03-13T18:07:44.028Z,8.40
2019-03-13T18:14:32.090Z,8.30
2019-03-13T18:21:15.540Z,8.20
2019-03-13T18:28:00.593Z,8.20
2019-03-13T18:34:45.435Z,8.00
2019-03-13T18:41:30.279Z,8.00
2019-03-13T18:48:15.131Z,7.90
2019-03-13T18:55:00.167Z,7.90
2019-03-13T19:01:45.488Z,7.80
2019-03-13T19:08:30.426Z,7.60
2019-03-13T19:15:19.452Z,7.50
2019-03-13T19:22:04.452Z,7.40
2019-03-13T19:28:49.512Z,7.10
2019-03-13T19:35:34.593Z,6.80
2019-03-13T19:42:19.577Z,6.60
2019-03-13T19:49:04.571Z,6.60
2019-03-13T19:55:49.497Z,6.50
2019-03-13T20:02:38.819Z,6.50
2019-03-13T20:09:23.983Z,6.50
2019-03-13T20:16:08.969Z,6.50
2019-03-13T20:22:59.415Z,6.50
2019-03-13T20:29:44.382Z,6.50
2019-03-13T20:36:29.354Z,6.50
2019-03-13T20:43:15.542Z,6.60
2019-03-13T20:50:00.741Z,6.70
2019-03-13T20:56:45.745Z,6.80
2019-03-13T21:03:30.638Z,6.90
2019-03-13T21:10:16.918Z,7.00
2019-03-13T21:17:01.875Z,7.00
2019-03-13T21:23:48.946Z,7.00
2019-03-13T21:30:35.055Z,6.80
2019-03-13T21:37:19.894Z,6.60
2019-03-13T21:44:06.365Z,6.60
2019-03-13T21:50:51.783Z,6.50
2019-03-13T21:57:36.700Z,6.50
2019-03-13T22:04:24.483Z,6.50
2019-03-13T22:11:09.425Z,6.30
2019-03-13T22:17:54.450Z,6.20
2019-03-13T22:24:39.387Z,6.20
2019-03-13T22:31:24.646Z,6.20
2019-03-13T22:38:09.628Z,6.30
2019-03-13T22:44:54.871Z,6.30
2019-03-13T22:51:39.814Z,6.30
2019-03-13T22:58:24.943Z,6.30
2019-03-13T23:05:10.333Z,6.30
2019-03-13T23:11:55.560Z,6.10
2019-03-13T23:18:40.567Z,6.10
2019-03-13T23:25:25.551Z,6.10
2019-03-13T23:32:10.402Z,6.20
2019-03-13T23:38:55.326Z,6.30
2019-03-13T23:45:40.505Z,6.40
2019-03-13T23:52:25.952Z,6.40
2019-03-13T23:59:10.910Z,6.30
